CheckWX is a tool to help pilots better visualize weather data.  It is not intended as a substitute for an official pre-flight weather briefing.

00:34:28 UTC

GMTN METAR
Saniat Rmel Airport
Morocco
Current

34 mins ago

GMTN 170000Z AUTO 25010KT /// 11/03 Q1020
Observed
Nov-17 @ 00:00 UTC
Wind
  • 250° at 10 KTS
Visibility
Temperature
11°C / 52°F
Dewpoint
C / 37°F
Humidity
58%
Altimeter
30.12" Hg
Pressure
1019.92 hPa
Previous

2 hours ago

GMTN 162300Z AUTO 23005KT 210V270 /// 11/03 Q1020
Observed
Nov-16 @ 23:00 UTC
Wind
  • 230° at 5 KTS
Visibility
Temperature
11°C / 52°F
Dewpoint
C / 37°F
Humidity
58%
Altimeter
30.12" Hg
Pressure
1019.92 hPa
Previous

3 hours ago

GMTN 162200Z 28006KT 240V310 9999 FEW020 12/04 Q1021 NOSIG
Observed
Nov-16 @ 22:00 UTC
Wind
  • 280° at 6 KTS
Visibility
10,000+ meters
Flight Rules
VFR
Cloud Levels
  • Few at 2,000' AGL
Temperature
12°C / 54°F
Dewpoint
C / 39°F
Humidity
58%
Altimeter
30.15" Hg
Pressure
1020.92 hPa